SAEZ/EZE METAR and TAF weather

Enter ICAO airport designator
Station Type Date Time Source
SAEZ METAR 2021/07/24 21:00 UTC NOAA

SAEZ 242100Z 11008KT 8000 NSC 15/12 Q1009 BECMG 5000 TSRA FEW050CB


Station Type Date Time Source
SAEZ Decoded METAR 2021/07/24 21:00 UTC NOAA

Ezeiza Aerodrome, Argentina (SAEZ) 34-49S 058-32W 20M
Jul 24, 2021 - 05:00 PM EDT / 2021.07.24 2100 UTC
Wind: from the ESE (110 degrees) at 9 MPH (8 KT):0
Visibility: 4 mile(s):0
Weather: Cumulonimbus clouds observed
Temperature: 59 F (15 C)
Dew Point: 53 F (12 C)
Relative Humidity: 82%
Pressure (altimeter): 29.80 in. Hg (1009 hPa)
ob: SAEZ 242100Z 11008KT 8000 NSC 15/12 Q1009 BECMG 5000 TSRA FEW050CB
cycle: 21

Station Type Date Time Source
SAEZ TAF 2021/07/24 21:30 UTC NOAA

TAF
AMD SAEZ 242030Z 2421/2518 11010KT 8000 NSC TX17/2518Z TN11/2510Z
BECMG 2421/2423 VRB15KT 5000 TSRA BKN020 FEW045CB OVC050
TEMPO 2424/2506 1000 +TSRA BKN010 FEW040CB OVC050
BECMG 2510/2512 25010KT 9999 NSW SCT020

Example: see airport list